sensor_id;sensor_type;location;lat;lon;timestamp;temperature;humidity
6843;DHT22;3460;52.028;8.916;2023-02-01T00:00:04;3.90;99.90
6843;DHT22;3460;52.028;8.916;2023-02-01T00:02:31;3.80;99.90
6843;DHT22;3460;52.028;8.916;2023-02-01T00:04:58;3.90;99.90
6843;DHT22;3460;52.028;8.916;2023-02-01T00:07:24;3.90;99.90
6843;DHT22;3460;52.028;8.916;2023-02-01T00:09:51;3.90;99.90
6843;DHT22;3460;52.028;8.916;2023-02-01T00:12:17;3.90;99.90
6843;DHT22;3460;52.028;8.916;2023-02-01T00:14:46;3.90;99.90
6843;DHT22;3460;52.028;8.916;2023-02-01T00:17:13;3.90;99.90
6843;DHT22;3460;52.028;8.916;2023-02-01T00:19:40;4.00;99.90
6843;DHT22;3460;52.028;8.916;2023-02-01T00:22:07;4.00;99.90
6843;DHT22;3460;52.028;8.916;2023-02-01T00:24:33;4.00;99.90
6843;DHT22;3460;52.028;8.916;2023-02-01T00:27:00;3.90;99.90
6843;DHT22;3460;52.028;8.916;2023-02-01T00:29:26;3.90;99.90
6843;DHT22;3460;52.028;8.916;2023-02-01T00:31:54;3.90;99.90
6843;DHT22;3460;52.028;8.916;2023-02-01T00:34:21;3.90;99.90
6843;DHT22;3460;52.028;8.916;2023-02-01T00:36:47;3.90;99.90
6843;DHT22;3460;52.028;8.916;2023-02-01T00:39:15;4.00;99.90
6843;DHT22;3460;52.028;8.916;2023-02-01T00:41:42;4.10;99.90
6843;DHT22;3460;52.028;8.916;2023-02-01T00:44:09;4.10;99.90
6843;DHT22;3460;52.028;8.916;2023-02-01T00:46:36;4.10;99.90
6843;DHT22;3460;52.028;8.916;2023-02-01T00:49:04;4.10;99.90
6843;DHT22;3460;52.028;8.916;2023-02-01T00:51:32;4.20;99.90
6843;DHT22;3460;52.028;8.916;2023-02-01T00:53:59;4.10;99.90
6843;DHT22;3460;52.028;8.916;2023-02-01T00:56:26;4.20;99.90
6843;DHT22;3460;52.028;8.916;2023-02-01T00:58:53;4.20;99.90
6843;DHT22;3460;52.028;8.916;2023-02-01T01:01:22;4.20;99.90
6843;DHT22;3460;52.028;8.916;2023-02-01T01:03:51;4.20;99.90
6843;DHT22;3460;52.028;8.916;2023-02-01T01:06:21;4.20;99.90
6843;DHT22;3460;52.028;8.916;2023-02-01T01:08:48;4.10;99.90
6843;DHT22;3460;52.028;8.916;2023-02-01T01:11:18;4.10;99.90
6843;DHT22;3460;52.028;8.916;2023-02-01T01:13:46;4.20;99.90
6843;DHT22;3460;52.028;8.916;2023-02-01T01:16:14;4.20;99.90
6843;DHT22;3460;52.028;8.916;2023-02-01T01:18:40;4.30;99.90
6843;DHT22;3460;52.028;8.916;2023-02-01T01:21:09;4.30;99.90
6843;DHT22;3460;52.028;8.916;2023-02-01T01:23:37;4.30;99.90
6843;DHT22;3460;52.028;8.916;2023-02-01T01:26:07;4.30;99.90
6843;DHT22;3460;52.028;8.916;2023-02-01T01:28:34;4.40;99.90
6843;DHT22;3460;52.028;8.916;2023-02-01T01:31:01;4.40;99.90
6843;DHT22;3460;52.028;8.916;2023-02-01T01:33:27;4.50;99.90
6843;DHT22;3460;52.028;8.916;2023-02-01T01:35:54;4.50;99.90
6843;DHT22;3460;52.028;8.916;2023-02-01T01:38:20;4.50;99.90
6843;DHT22;3460;52.028;8.916;2023-02-01T01:40:48;4.50;99.90
6843;DHT22;3460;52.028;8.916;2023-02-01T01:43:18;4.60;99.90
6843;DHT22;3460;52.028;8.916;2023-02-01T01:45:48;4.70;99.90
6843;DHT22;3460;52.028;8.916;2023-02-01T01:48:17;4.60;99.90
6843;DHT22;3460;52.028;8.916;2023-02-01T01:50:48;4.70;99.90
6843;DHT22;3460;52.028;8.916;2023-02-01T01:53:19;4.70;99.90
6843;DHT22;3460;52.028;8.916;2023-02-01T01:55:48;4.70;99.90
6843;DHT22;3460;52.028;8.916;2023-02-01T01:58:18;4.70;99.90
6843;DHT22;3460;52.028;8.916;2023-02-01T02:00:45;4.80;99.90
6843;DHT22;3460;52.028;8.916;2023-02-01T02:03:16;4.80;99.90
6843;DHT22;3460;52.028;8.916;2023-02-01T02:05:44;4.80;99.90
6843;DHT22;3460;52.028;8.916;2023-02-01T02:08:12;4.80;99.90
6843;DHT22;3460;52.028;8.916;2023-02-01T02:10:38;4.80;99.90
6843;DHT22;3460;52.028;8.916;2023-02-01T02:13:23;4.80;99.90
6843;DHT22;3460;52.028;8.916;2023-02-01T02:15:59;4.80;99.90
6843;DHT22;3460;52.028;8.916;2023-02-01T02:18:34;4.80;99.90
6843;DHT22;3460;52.028;8.916;2023-02-01T02:21:12;4.90;99.90
6843;DHT22;3460;52.028;8.916;2023-02-01T02:27:00;4.80;99.90
6843;DHT22;3460;52.028;8.916;2023-02-01T02:32:52;5.00;99.90
6843;DHT22;3460;52.028;8.916;2023-02-01T02:35:29;4.90;99.90
6843;DHT22;3460;52.028;8.916;2023-02-01T02:38:05;5.00;99.90
6843;DHT22;3460;52.028;8.916;2023-02-01T02:40:42;5.00;99.90
6843;DHT22;3460;52.028;8.916;2023-02-01T02:43:18;5.00;99.90
6843;DHT22;3460;52.028;8.916;2023-02-01T02:46:11;5.00;99.90
6843;DHT22;3460;52.028;8.916;2023-02-01T02:49:02;5.10;99.90
6843;DHT22;3460;52.028;8.916;2023-02-01T02:51:36;5.10;99.90
6843;DHT22;3460;52.028;8.916;2023-02-01T02:54:28;5.00;99.90
6843;DHT22;3460;52.028;8.916;2023-02-01T02:57:18;5.00;99.90
6843;DHT22;3460;52.028;8.916;2023-02-01T03:00:08;5.20;99.90
6843;DHT22;3460;52.028;8.916;2023-02-01T03:02:53;5.20;99.90
6843;DHT22;3460;52.028;8.916;2023-02-01T03:05:41;5.10;99.90
6843;DHT22;3460;52.028;8.916;2023-02-01T03:08:12;5.20;99.90
6843;DHT22;3460;52.028;8.916;2023-02-01T03:10:49;5.10;99.90
6843;DHT22;3460;52.028;8.916;2023-02-01T03:13:25;5.20;99.90
6843;DHT22;3460;52.028;8.916;2023-02-01T03:16:00;5.20;99.90
6843;DHT22;3460;52.028;8.916;2023-02-01T03:18:33;5.20;99.90
6843;DHT22;3460;52.028;8.916;2023-02-01T03:21:06;5.20;99.90
6843;DHT22;3460;52.028;8.916;2023-02-01T03:23:36;5.30;99.90
6843;DHT22;3460;52.028;8.916;2023-02-01T03:26:05;5.20;99.90
6843;DHT22;3460;52.028;8.916;2023-02-01T03:28:34;5.30;99.90
6843;DHT22;3460;52.028;8.916;2023-02-01T03:31:01;5.30;99.90
6843;DHT22;3460;52.028;8.916;2023-02-01T03:33:29;5.30;99.90
6843;DHT22;3460;52.028;8.916;2023-02-01T03:36:05;5.20;99.90
6843;DHT22;3460;52.028;8.916;2023-02-01T03:38:39;5.30;99.90
6843;DHT22;3460;52.028;8.916;2023-02-01T03:41:11;5.20;99.90
6843;DHT22;3460;52.028;8.916;2023-02-01T03:43:44;5.30;99.90
6843;DHT22;3460;52.028;8.916;2023-02-01T03:46:18;5.30;99.90
6843;DHT22;3460;52.028;8.916;2023-02-01T03:48:48;5.30;99.90
6843;DHT22;3460;52.028;8.916;2023-02-01T03:51:16;5.30;99.90
6843;DHT22;3460;52.028;8.916;2023-02-01T03:53:47;5.40;99.90
6843;DHT22;3460;52.028;8.916;2023-02-01T03:56:15;5.40;99.90
6843;DHT22;3460;52.028;8.916;2023-02-01T03:58:44;5.30;99.90
6843;DHT22;3460;52.028;8.916;2023-02-01T04:01:24;5.30;99.90
6843;DHT22;3460;52.028;8.916;2023-02-01T04:03:51;5.30;99.90
6843;DHT22;3460;52.028;8.916;2023-02-01T04:06:17;5.40;99.90
6843;DHT22;3460;52.028;8.916;2023-02-01T04:08:45;5.40;99.90
6843;DHT22;3460;52.028;8.916;2023-02-01T04:11:12;5.40;99.90
6843;DHT22;3460;52.028;8.916;2023-02-01T04:13:39;5.40;99.90
6843;DHT22;3460;52.028;8.916;2023-02-01T04:16:06;5.40;99.90
6843;DHT22;3460;52.028;8.916;2023-02-01T04:18:32;5.40;99.90
6843;DHT22;3460;52.028;8.916;2023-02-01T04:21:00;5.40;99.90
6843;DHT22;3460;52.028;8.916;2023-02-01T04:23:27;5.40;99.90
6843;DHT22;3460;52.028;8.916;2023-02-01T04:25:59;5.50;99.90
6843;DHT22;3460;52.028;8.916;2023-02-01T04:28:25;5.50;99.90
6843;DHT22;3460;52.028;8.916;2023-02-01T04:30:52;5.50;99.90
6843;DHT22;3460;52.028;8.916;2023-02-01T04:33:19;5.50;99.90
6843;DHT22;3460;52.028;8.916;2023-02-01T04:35:45;5.40;99.90
6843;DHT22;3460;52.028;8.916;2023-02-01T04:38:12;5.40;99.90
6843;DHT22;3460;52.028;8.916;2023-02-01T04:40:38;5.40;99.90
6843;DHT22;3460;52.028;8.916;2023-02-01T04:43:07;5.40;99.90
6843;DHT22;3460;52.028;8.916;2023-02-01T04:45:33;5.30;99.90
6843;DHT22;3460;52.028;8.916;2023-02-01T04:48:00;5.30;99.90
6843;DHT22;3460;52.028;8.916;2023-02-01T04:50:26;5.40;99.90
6843;DHT22;3460;52.028;8.916;2023-02-01T04:52:53;5.30;99.90
6843;DHT22;3460;52.028;8.916;2023-02-01T04:55:20;5.30;99.90
6843;DHT22;3460;52.028;8.916;2023-02-01T04:57:46;5.30;99.90
6843;DHT22;3460;52.028;8.916;2023-02-01T05:00:15;5.30;99.90
6843;DHT22;3460;52.028;8.916;2023-02-01T05:02:42;5.30;99.90
6843;DHT22;3460;52.028;8.916;2023-02-01T05:05:09;5.30;99.90
6843;DHT22;3460;52.028;8.916;2023-02-01T05:07:35;5.30;99.90
6843;DHT22;3460;52.028;8.916;2023-02-01T05:10:02;5.30;99.90
6843;DHT22;3460;52.028;8.916;2023-02-01T05:12:29;5.30;99.90
6843;DHT22;3460;52.028;8.916;2023-02-01T05:15:14;5.30;99.90
6843;DHT22;3460;52.028;8.916;2023-02-01T05:17:41;5.20;99.90
6843;DHT22;3460;52.028;8.916;2023-02-01T05:20:09;5.10;99.90
6843;DHT22;3460;52.028;8.916;2023-02-01T05:22:35;5.10;99.90
6843;DHT22;3460;52.028;8.916;2023-02-01T05:25:02;5.00;99.90
6843;DHT22;3460;52.028;8.916;2023-02-01T05:27:29;5.00;99.90
6843;DHT22;3460;52.028;8.916;2023-02-01T05:29:56;5.00;99.90
6843;DHT22;3460;52.028;8.916;2023-02-01T05:32:24;5.00;99.90
6843;DHT22;3460;52.028;8.916;2023-02-01T05:34:50;4.90;99.90
6843;DHT22;3460;52.028;8.916;2023-02-01T05:37:17;4.90;99.90
6843;DHT22;3460;52.028;8.916;2023-02-01T05:39:43;5.00;99.90
6843;DHT22;3460;52.028;8.916;2023-02-01T05:42:10;5.00;99.90
6843;DHT22;3460;52.028;8.916;2023-02-01T05:44:37;5.00;99.90
6843;DHT22;3460;52.028;8.916;2023-02-01T05:47:04;5.00;99.90
6843;DHT22;3460;52.028;8.916;2023-02-01T05:49:32;4.90;99.90
6843;DHT22;3460;52.028;8.916;2023-02-01T05:51:58;4.80;99.90
6843;DHT22;3460;52.028;8.916;2023-02-01T05:54:25;4.80;99.90
6843;DHT22;3460;52.028;8.916;2023-02-01T05:56:51;4.80;99.90
6843;DHT22;3460;52.028;8.916;2023-02-01T05:59:18;4.90;99.90
6843;DHT22;3460;52.028;8.916;2023-02-01T06:01:44;4.90;99.90
6843;DHT22;3460;52.028;8.916;2023-02-01T06:04:11;4.90;99.90
6843;DHT22;3460;52.028;8.916;2023-02-01T06:06:39;4.90;99.90
6843;DHT22;3460;52.028;8.916;2023-02-01T06:09:06;4.90;99.90
6843;DHT22;3460;52.028;8.916;2023-02-01T06:11:32;5.00;99.90
6843;DHT22;3460;52.028;8.916;2023-02-01T06:13:59;4.90;99.90
6843;DHT22;3460;52.028;8.916;2023-02-01T06:16:26;4.90;99.90
6843;DHT22;3460;52.028;8.916;2023-02-01T06:18:53;5.00;99.90
6843;DHT22;3460;52.028;8.916;2023-02-01T06:21:20;5.00;99.90
6843;DHT22;3460;52.028;8.916;2023-02-01T06:23:51;5.00;99.90
6843;DHT22;3460;52.028;8.916;2023-02-01T06:26:17;5.00;99.90
6843;DHT22;3460;52.028;8.916;2023-02-01T06:28:44;5.10;99.90
6843;DHT22;3460;52.028;8.916;2023-02-01T06:31:11;5.10;99.90
6843;DHT22;3460;52.028;8.916;2023-02-01T06:33:38;5.10;99.90
6843;DHT22;3460;52.028;8.916;2023-02-01T06:36:07;5.00;99.90
6843;DHT22;3460;52.028;8.916;2023-02-01T06:38:34;5.10;99.90
6843;DHT22;3460;52.028;8.916;2023-02-01T06:41:03;5.10;99.90
6843;DHT22;3460;52.028;8.916;2023-02-01T06:43:30;5.10;99.90
6843;DHT22;3460;52.028;8.916;2023-02-01T06:46:00;5.10;99.90
6843;DHT22;3460;52.028;8.916;2023-02-01T06:48:27;5.10;99.90
6843;DHT22;3460;52.028;8.916;2023-02-01T06:50:53;5.10;99.90
6843;DHT22;3460;52.028;8.916;2023-02-01T06:53:20;5.10;99.90
6843;DHT22;3460;52.028;8.916;2023-02-01T06:55:53;5.10;99.90
6843;DHT22;3460;52.028;8.916;2023-02-01T06:58:21;5.20;99.90
6843;DHT22;3460;52.028;8.916;2023-02-01T07:00:48;5.20;99.90
6843;DHT22;3460;52.028;8.916;2023-02-01T07:03:15;5.10;99.90
6843;DHT22;3460;52.028;8.916;2023-02-01T07:05:42;5.10;99.90
6843;DHT22;3460;52.028;8.916;2023-02-01T07:08:09;5.10;99.90
6843;DHT22;3460;52.028;8.916;2023-02-01T07:10:36;5.10;99.90
6843;DHT22;3460;52.028;8.916;2023-02-01T07:13:03;5.10;99.90
6843;DHT22;3460;52.028;8.916;2023-02-01T07:15:31;5.30;99.90
6843;DHT22;3460;52.028;8.916;2023-02-01T07:17:57;5.20;99.90
6843;DHT22;3460;52.028;8.916;2023-02-01T07:20:24;5.30;99.90
6843;DHT22;3460;52.028;8.916;2023-02-01T07:22:54;5.30;99.90
6843;DHT22;3460;52.028;8.916;2023-02-01T07:25:21;5.30;99.90
6843;DHT22;3460;52.028;8.916;2023-02-01T07:27:47;5.30;99.90
6843;DHT22;3460;52.028;8.916;2023-02-01T07:30:14;5.40;99.90
6843;DHT22;3460;52.028;8.916;2023-02-01T07:32:42;5.40;99.90
6843;DHT22;3460;52.028;8.916;2023-02-01T07:35:09;5.40;99.90
6843;DHT22;3460;52.028;8.916;2023-02-01T07:37:35;5.40;99.90
6843;DHT22;3460;52.028;8.916;2023-02-01T07:40:02;5.40;99.90
6843;DHT22;3460;52.028;8.916;2023-02-01T07:42:29;5.40;99.90
6843;DHT22;3460;52.028;8.916;2023-02-01T07:44:55;5.40;99.90
6843;DHT22;3460;52.028;8.916;2023-02-01T07:47:22;5.40;99.90
6843;DHT22;3460;52.028;8.916;2023-02-01T07:49:50;5.40;99.90
6843;DHT22;3460;52.028;8.916;2023-02-01T07:52:17;5.50;99.90
6843;DHT22;3460;52.028;8.916;2023-02-01T07:54:43;5.50;99.90
6843;DHT22;3460;52.028;8.916;2023-02-01T07:57:10;5.50;99.90
6843;DHT22;3460;52.028;8.916;2023-02-01T07:59:38;5.50;99.90
6843;DHT22;3460;52.028;8.916;2023-02-01T08:02:25;5.50;99.90
6843;DHT22;3460;52.028;8.916;2023-02-01T08:04:53;5.50;99.90
6843;DHT22;3460;52.028;8.916;2023-02-01T08:07:19;5.50;99.90
6843;DHT22;3460;52.028;8.916;2023-02-01T08:09:47;5.60;99.90
6843;DHT22;3460;52.028;8.916;2023-02-01T08:12:14;5.50;99.90
6843;DHT22;3460;52.028;8.916;2023-02-01T08:14:40;5.60;99.90
6843;DHT22;3460;52.028;8.916;2023-02-01T08:17:07;5.60;99.90
6843;DHT22;3460;52.028;8.916;2023-02-01T08:19:34;5.60;99.90
6843;DHT22;3460;52.028;8.916;2023-02-01T08:22:02;5.70;99.90
6843;DHT22;3460;52.028;8.916;2023-02-01T08:24:32;5.70;99.90
6843;DHT22;3460;52.028;8.916;2023-02-01T08:27:00;5.70;99.90
6843;DHT22;3460;52.028;8.916;2023-02-01T08:29:27;5.70;99.90
6843;DHT22;3460;52.028;8.916;2023-02-01T08:31:53;5.70;99.90
6843;DHT22;3460;52.028;8.916;2023-02-01T08:34:20;5.60;99.90
6843;DHT22;3460;52.028;8.916;2023-02-01T08:36:47;5.70;99.90
6843;DHT22;3460;52.028;8.916;2023-02-01T08:39:15;5.70;99.90
6843;DHT22;3460;52.028;8.916;2023-02-01T08:41:41;5.70;99.90
6843;DHT22;3460;52.028;8.916;2023-02-01T08:44:28;5.70;99.90
6843;DHT22;3460;52.028;8.916;2023-02-01T08:46:55;5.80;99.90
6843;DHT22;3460;52.028;8.916;2023-02-01T08:49:21;5.80;99.90
6843;DHT22;3460;52.028;8.916;2023-02-01T08:51:48;5.90;99.90
6843;DHT22;3460;52.028;8.916;2023-02-01T08:54:16;5.90;99.90
6843;DHT22;3460;52.028;8.916;2023-02-01T08:56:42;5.90;99.90
6843;DHT22;3460;52.028;8.916;2023-02-01T08:59:09;6.00;99.90
6843;DHT22;3460;52.028;8.916;2023-02-01T09:01:35;5.90;99.90
6843;DHT22;3460;52.028;8.916;2023-02-01T09:04:02;6.00;99.90
6843;DHT22;3460;52.028;8.916;2023-02-01T09:06:29;6.10;99.90
6843;DHT22;3460;52.028;8.916;2023-02-01T09:08:55;6.00;99.90
6843;DHT22;3460;52.028;8.916;2023-02-01T09:11:23;6.10;99.90
6843;DHT22;3460;52.028;8.916;2023-02-01T09:13:51;6.10;99.90
6843;DHT22;3460;52.028;8.916;2023-02-01T09:16:18;6.10;99.90
6843;DHT22;3460;52.028;8.916;2023-02-01T09:18:44;6.10;99.90
6843;DHT22;3460;52.028;8.916;2023-02-01T09:21:11;6.00;99.90
6843;DHT22;3460;52.028;8.916;2023-02-01T09:23:37;6.00;99.90
6843;DHT22;3460;52.028;8.916;2023-02-01T09:26:04;6.10;99.90
6843;DHT22;3460;52.028;8.916;2023-02-01T09:28:33;6.10;99.90
6843;DHT22;3460;52.028;8.916;2023-02-01T09:31:00;6.10;99.90
6843;DHT22;3460;52.028;8.916;2023-02-01T09:33:28;6.20;99.90
6843;DHT22;3460;52.028;8.916;2023-02-01T09:35:57;6.20;99.90
6843;DHT22;3460;52.028;8.916;2023-02-01T09:38:24;6.20;99.90
6843;DHT22;3460;52.028;8.916;2023-02-01T09:40:53;6.30;99.90
6843;DHT22;3460;52.028;8.916;2023-02-01T09:43:35;6.30;99.90
6843;DHT22;3460;52.028;8.916;2023-02-01T09:46:18;6.40;99.90
6843;DHT22;3460;52.028;8.916;2023-02-01T09:48:47;6.40;99.90
6843;DHT22;3460;52.028;8.916;2023-02-01T09:51:18;6.40;99.90
6843;DHT22;3460;52.028;8.916;2023-02-01T09:53:51;6.30;99.90
6843;DHT22;3460;52.028;8.916;2023-02-01T09:56:24;6.40;99.90
6843;DHT22;3460;52.028;8.916;2023-02-01T09:59:01;6.30;99.90
6843;DHT22;3460;52.028;8.916;2023-02-01T10:01:31;6.30;99.90
6843;DHT22;3460;52.028;8.916;2023-02-01T10:04:03;6.40;99.90
6843;DHT22;3460;52.028;8.916;2023-02-01T10:06:39;6.30;99.90
6843;DHT22;3460;52.028;8.916;2023-02-01T10:09:19;6.30;99.90
6843;DHT22;3460;52.028;8.916;2023-02-01T10:12:00;6.20;99.90
6843;DHT22;3460;52.028;8.916;2023-02-01T10:14:46;6.30;99.90
6843;DHT22;3460;52.028;8.916;2023-02-01T10:17:23;6.30;99.90
6843;DHT22;3460;52.028;8.916;2023-02-01T10:20:00;6.30;99.90
6843;DHT22;3460;52.028;8.916;2023-02-01T10:22:36;6.30;99.90
6843;DHT22;3460;52.028;8.916;2023-02-01T10:25:08;6.40;99.90
6843;DHT22;3460;52.028;8.916;2023-02-01T10:27:39;6.40;99.90
6843;DHT22;3460;52.028;8.916;2023-02-01T10:30:18;6.50;99.90
6843;DHT22;3460;52.028;8.916;2023-02-01T10:32:48;6.50;99.90
6843;DHT22;3460;52.028;8.916;2023-02-01T10:35:18;6.50;99.90
6843;DHT22;3460;52.028;8.916;2023-02-01T10:37:45;6.60;99.90
6843;DHT22;3460;52.028;8.916;2023-02-01T10:40:17;6.60;99.90
6843;DHT22;3460;52.028;8.916;2023-02-01T10:42:45;6.50;99.90
6843;DHT22;3460;52.028;8.916;2023-02-01T10:45:16;6.50;99.90
6843;DHT22;3460;52.028;8.916;2023-02-01T10:47:44;6.50;99.90
6843;DHT22;3460;52.028;8.916;2023-02-01T10:50:19;6.50;99.90
6843;DHT22;3460;52.028;8.916;2023-02-01T10:52:52;6.50;99.90
6843;DHT22;3460;52.028;8.916;2023-02-01T10:55:27;6.50;99.90
6843;DHT22;3460;52.028;8.916;2023-02-01T10:57:56;6.40;99.90
6843;DHT22;3460;52.028;8.916;2023-02-01T11:00:25;6.50;99.90
6843;DHT22;3460;52.028;8.916;2023-02-01T11:02:52;6.50;99.90
6843;DHT22;3460;52.028;8.916;2023-02-01T11:05:19;6.50;99.90
6843;DHT22;3460;52.028;8.916;2023-02-01T11:07:50;6.50;99.90
6843;DHT22;3460;52.028;8.916;2023-02-01T11:10:35;6.50;99.90
6843;DHT22;3460;52.028;8.916;2023-02-01T11:13:03;6.60;99.90
6843;DHT22;3460;52.028;8.916;2023-02-01T11:15:32;6.50;99.90
6843;DHT22;3460;52.028;8.916;2023-02-01T11:18:14;6.50;99.90
6843;DHT22;3460;52.028;8.916;2023-02-01T11:20:42;6.50;99.90
6843;DHT22;3460;52.028;8.916;2023-02-01T11:23:13;6.50;99.90
6843;DHT22;3460;52.028;8.916;2023-02-01T11:25:48;6.50;99.90
6843;DHT22;3460;52.028;8.916;2023-02-01T11:28:15;6.60;99.90
6843;DHT22;3460;52.028;8.916;2023-02-01T11:30:45;6.50;99.90
6843;DHT22;3460;52.028;8.916;2023-02-01T11:33:15;6.50;99.90
6843;DHT22;3460;52.028;8.916;2023-02-01T11:35:42;6.50;99.90
6843;DHT22;3460;52.028;8.916;2023-02-01T11:38:27;6.60;99.90
6843;DHT22;3460;52.028;8.916;2023-02-01T11:40:54;6.50;99.90
6843;DHT22;3460;52.028;8.916;2023-02-01T11:43:23;6.50;99.90
6843;DHT22;3460;52.028;8.916;2023-02-01T11:45:57;6.60;99.90
6843;DHT22;3460;52.028;8.916;2023-02-01T11:48:25;6.60;99.90
6843;DHT22;3460;52.028;8.916;2023-02-01T11:51:13;6.60;99.90
6843;DHT22;3460;52.028;8.916;2023-02-01T11:53:59;6.60;99.90
6843;DHT22;3460;52.028;8.916;2023-02-01T11:56:33;6.60;99.90
6843;DHT22;3460;52.028;8.916;2023-02-01T11:59:23;6.70;99.90
6843;DHT22;3460;52.028;8.916;2023-02-01T12:02:07;6.70;99.90
6843;DHT22;3460;52.028;8.916;2023-02-01T12:04:56;6.60;99.90
6843;DHT22;3460;52.028;8.916;2023-02-01T12:07:38;6.70;99.90
6843;DHT22;3460;52.028;8.916;2023-02-01T12:10:21;6.60;99.90
6843;DHT22;3460;52.028;8.916;2023-02-01T12:13:00;6.60;99.90
6843;DHT22;3460;52.028;8.916;2023-02-01T12:15:46;6.60;99.90
6843;DHT22;3460;52.028;8.916;2023-02-01T12:18:40;6.50;99.90
6843;DHT22;3460;52.028;8.916;2023-02-01T12:21:29;6.50;99.90
6843;DHT22;3460;52.028;8.916;2023-02-01T12:24:11;6.40;99.90
6843;DHT22;3460;52.028;8.916;2023-02-01T12:26:51;6.30;99.90
6843;DHT22;3460;52.028;8.916;2023-02-01T12:29:33;6.20;99.90
6843;DHT22;3460;52.028;8.916;2023-02-01T12:32:09;6.10;99.90
6843;DHT22;3460;52.028;8.916;2023-02-01T12:35:00;6.00;99.90
6843;DHT22;3460;52.028;8.916;2023-02-01T12:37:38;5.90;99.90
6843;DHT22;3460;52.028;8.916;2023-02-01T12:40:20;5.80;99.90
6843;DHT22;3460;52.028;8.916;2023-02-01T12:42:57;5.60;99.90
6843;DHT22;3460;52.028;8.916;2023-02-01T12:45:30;5.50;99.90
6843;DHT22;3460;52.028;8.916;2023-02-01T12:48:02;5.60;99.90
6843;DHT22;3460;52.028;8.916;2023-02-01T12:50:35;5.60;99.90
6843;DHT22;3460;52.028;8.916;2023-02-01T12:53:09;5.60;99.90
6843;DHT22;3460;52.028;8.916;2023-02-01T12:55:43;5.60;99.90
6843;DHT22;3460;52.028;8.916;2023-02-01T12:58:17;5.60;99.90
6843;DHT22;3460;52.028;8.916;2023-02-01T13:00:49;5.60;99.90
6843;DHT22;3460;52.028;8.916;2023-02-01T13:03:27;5.50;99.90
6843;DHT22;3460;52.028;8.916;2023-02-01T13:06:00;5.50;99.90
6843;DHT22;3460;52.028;8.916;2023-02-01T13:08:36;5.50;99.90
6843;DHT22;3460;52.028;8.916;2023-02-01T13:11:08;5.40;99.90
6843;DHT22;3460;52.028;8.916;2023-02-01T13:13:45;5.40;99.90
6843;DHT22;3460;52.028;8.916;2023-02-01T13:16:15;5.40;99.90
6843;DHT22;3460;52.028;8.916;2023-02-01T13:18:46;5.30;99.90
6843;DHT22;3460;52.028;8.916;2023-02-01T13:21:20;5.30;99.90
6843;DHT22;3460;52.028;8.916;2023-02-01T13:23:48;5.20;99.90
6843;DHT22;3460;52.028;8.916;2023-02-01T13:26:16;5.10;99.90
6843;DHT22;3460;52.028;8.916;2023-02-01T13:28:45;5.20;99.90
6843;DHT22;3460;52.028;8.916;2023-02-01T13:31:39;5.20;99.90
6843;DHT22;3460;52.028;8.916;2023-02-01T13:34:39;5.30;99.90
6843;DHT22;3460;52.028;8.916;2023-02-01T13:37:23;5.30;99.90
6843;DHT22;3460;52.028;8.916;2023-02-01T13:40:05;5.30;99.90
6843;DHT22;3460;52.028;8.916;2023-02-01T13:42:44;5.30;99.90
6843;DHT22;3460;52.028;8.916;2023-02-01T13:45:15;5.40;99.90
6843;DHT22;3460;52.028;8.916;2023-02-01T13:47:46;5.40;99.90
6843;DHT22;3460;52.028;8.916;2023-02-01T13:50:21;5.40;99.90
6843;DHT22;3460;52.028;8.916;2023-02-01T13:52:54;5.40;99.90
6843;DHT22;3460;52.028;8.916;2023-02-01T13:55:28;5.40;99.90
6843;DHT22;3460;52.028;8.916;2023-02-01T13:58:02;5.40;99.90
6843;DHT22;3460;52.028;8.916;2023-02-01T14:00:31;5.40;99.90
6843;DHT22;3460;52.028;8.916;2023-02-01T14:03:17;5.50;99.90
6843;DHT22;3460;52.028;8.916;2023-02-01T14:06:17;5.40;99.90
6843;DHT22;3460;52.028;8.916;2023-02-01T14:09:10;5.40;99.90
6843;DHT22;3460;52.028;8.916;2023-02-01T14:11:41;5.60;99.90
6843;DHT22;3460;52.028;8.916;2023-02-01T14:17:34;5.60;99.90
6843;DHT22;3460;52.028;8.916;2023-02-01T14:23:21;5.70;99.90
6843;DHT22;3460;52.028;8.916;2023-02-01T14:26:05;5.70;99.90
6843;DHT22;3460;52.028;8.916;2023-02-01T14:28:35;5.70;99.90
6843;DHT22;3460;52.028;8.916;2023-02-01T14:31:30;5.70;99.90
6843;DHT22;3460;52.028;8.916;2023-02-01T14:33:59;5.70;99.90
6843;DHT22;3460;52.028;8.916;2023-02-01T14:36:27;5.70;99.90
6843;DHT22;3460;52.028;8.916;2023-02-01T14:39:17;5.70;99.90
6843;DHT22;3460;52.028;8.916;2023-02-01T14:41:46;5.70;99.90
6843;DHT22;3460;52.028;8.916;2023-02-01T14:44:23;5.60;99.90
6843;DHT22;3460;52.028;8.916;2023-02-01T14:50:27;5.60;99.90
6843;DHT22;3460;52.028;8.916;2023-02-01T14:53:22;5.60;99.90
6843;DHT22;3460;52.028;8.916;2023-02-01T14:55:53;5.50;99.90
6843;DHT22;3460;52.028;8.916;2023-02-01T14:58:32;5.50;99.90
6843;DHT22;3460;52.028;8.916;2023-02-01T15:01:04;5.50;99.90
6843;DHT22;3460;52.028;8.916;2023-02-01T15:03:45;5.50;99.90
6843;DHT22;3460;52.028;8.916;2023-02-01T15:06:23;5.50;99.90
6843;DHT22;3460;52.028;8.916;2023-02-01T15:08:54;5.50;99.90
6843;DHT22;3460;52.028;8.916;2023-02-01T15:11:21;5.60;99.90
6843;DHT22;3460;52.028;8.916;2023-02-01T15:13:52;5.50;99.90
6843;DHT22;3460;52.028;8.916;2023-02-01T15:16:22;5.50;99.90
6843;DHT22;3460;52.028;8.916;2023-02-01T15:18:49;5.50;99.90
6843;DHT22;3460;52.028;8.916;2023-02-01T15:21:19;5.50;99.90
6843;DHT22;3460;52.028;8.916;2023-02-01T15:23:46;5.40;99.90
6843;DHT22;3460;52.028;8.916;2023-02-01T15:26:25;5.40;99.90
6843;DHT22;3460;52.028;8.916;2023-02-01T15:28:53;5.50;99.90
6843;DHT22;3460;52.028;8.916;2023-02-01T15:31:32;5.50;99.90
6843;DHT22;3460;52.028;8.916;2023-02-01T15:33:59;5.50;99.90
6843;DHT22;3460;52.028;8.916;2023-02-01T15:36:26;5.60;99.90
6843;DHT22;3460;52.028;8.916;2023-02-01T15:39:13;5.60;99.90
6843;DHT22;3460;52.028;8.916;2023-02-01T15:41:45;5.60;99.90
6843;DHT22;3460;52.028;8.916;2023-02-01T15:44:18;5.60;99.90
6843;DHT22;3460;52.028;8.916;2023-02-01T15:46:47;5.60;99.90
6843;DHT22;3460;52.028;8.916;2023-02-01T15:49:23;5.60;99.90
6843;DHT22;3460;52.028;8.916;2023-02-01T15:51:52;5.70;99.90
6843;DHT22;3460;52.028;8.916;2023-02-01T15:54:23;5.70;99.90
6843;DHT22;3460;52.028;8.916;2023-02-01T15:56:53;5.70;99.90
6843;DHT22;3460;52.028;8.916;2023-02-01T15:59:24;5.70;99.90
6843;DHT22;3460;52.028;8.916;2023-02-01T16:01:51;5.70;99.90
6843;DHT22;3460;52.028;8.916;2023-02-01T16:04:20;5.70;99.90
6843;DHT22;3460;52.028;8.916;2023-02-01T16:06:49;5.70;99.90
6843;DHT22;3460;52.028;8.916;2023-02-01T16:09:18;5.70;99.90
6843;DHT22;3460;52.028;8.916;2023-02-01T16:12:03;5.70;99.90
6843;DHT22;3460;52.028;8.916;2023-02-01T16:14:32;5.70;99.90
6843;DHT22;3460;52.028;8.916;2023-02-01T16:16:59;5.80;99.90
6843;DHT22;3460;52.028;8.916;2023-02-01T16:19:26;5.90;99.90
6843;DHT22;3460;52.028;8.916;2023-02-01T16:21:53;5.80;99.90
6843;DHT22;3460;52.028;8.916;2023-02-01T16:24:20;5.80;99.90
6843;DHT22;3460;52.028;8.916;2023-02-01T16:26:48;5.80;99.90
6843;DHT22;3460;52.028;8.916;2023-02-01T16:29:15;5.80;99.90
6843;DHT22;3460;52.028;8.916;2023-02-01T16:31:43;5.80;99.90
6843;DHT22;3460;52.028;8.916;2023-02-01T16:34:14;5.80;99.90
6843;DHT22;3460;52.028;8.916;2023-02-01T16:36:42;5.80;99.90
6843;DHT22;3460;52.028;8.916;2023-02-01T16:39:10;5.90;99.90
6843;DHT22;3460;52.028;8.916;2023-02-01T16:41:37;5.90;99.90
6843;DHT22;3460;52.028;8.916;2023-02-01T16:44:04;5.90;99.90
6843;DHT22;3460;52.028;8.916;2023-02-01T16:46:38;5.90;99.90
6843;DHT22;3460;52.028;8.916;2023-02-01T16:49:18;5.80;99.90
6843;DHT22;3460;52.028;8.916;2023-02-01T16:51:45;5.90;99.90
6843;DHT22;3460;52.028;8.916;2023-02-01T16:54:13;5.70;99.90
6843;DHT22;3460;52.028;8.916;2023-02-01T16:56:41;5.60;99.90
6843;DHT22;3460;52.028;8.916;2023-02-01T16:59:09;5.50;99.90